Time;durP1;ratioP1;P1;durP2;ratioP2;P2;SDS_P1;SDS_P2;PMS_P1;PMS_P2;Temp;Humidity;BMP_temperature;BMP_pressure;BME280_temperature;BME280_humidity;BME280_pressure;Samples;Min_cycle;Max_cycle;Signal;HPM_P1;HPM_P2
2022/01/18 00:01:12;;;;;;;;;24.75;21.25;20.00;99.90;;;;;;5057251;28;8712;-66
2022/01/18 00:03:38;;;;;;;;;26.20;23.40;20.00;99.90;;;;;;5056046;28;8765;-66
2022/01/18 00:06:05;;;;;;;;;24.75;22.50;20.00;99.90;;;;;;5056320;28;8731;-66
2022/01/18 00:08:32;;;;;;;;;16.60;15.00;20.00;99.90;;;;;;5055893;28;8745;-65
2022/01/18 00:10:59;;;;;;;;;21.20;18.00;19.90;99.90;;;;;;5054743;28;9333;-66
2022/01/18 00:18:35;;;;;;;;;19.20;18.00;19.80;99.90;;;;;;5056365;28;8730;-66
2022/01/18 00:23:33;;;;;;;;;16.60;15.00;19.80;99.90;;;;;;5056153;28;8730;-67
2022/01/18 00:26:00;;;;;;;;;15.60;14.60;19.80;99.90;;;;;;5056450;28;8857;-66
2022/01/18 00:28:28;;;;;;;;;17.20;10.80;19.80;99.90;;;;;;5056605;28;9135;-66
2022/01/18 00:35:57;;;;;;;;;29.25;21.25;19.90;99.90;;;;;;5055839;28;8779;-66
2022/01/18 00:38:45;;;;;;;;;23.00;19.50;19.90;99.90;;;;;;5055061;28;8735;-66
2022/01/18 00:41:12;;;;;;;;;18.80;17.60;19.90;99.90;;;;;;5055461;28;8845;-65
2022/01/18 00:43:39;;;;;;;;;19.20;16.80;19.90;99.90;;;;;;5053486;28;8850;-66
2022/01/18 00:46:06;;;;;;;;;19.60;16.20;19.90;99.90;;;;;;5056358;28;8724;-66
2022/01/18 00:48:35;;;;;;;;;16.00;15.00;19.90;99.90;;;;;;5053196;28;9030;-66
2022/01/18 00:51:05;;;;;;;;;17.20;15.40;19.90;99.90;;;;;;5055799;28;8739;-66
2022/01/18 00:53:35;;;;;;;;;17.80;16.40;19.90;99.90;;;;;;5057857;28;8817;-66
2022/01/18 00:58:31;;;;;;;;;32.00;25.80;19.90;99.90;;;;;;5057300;28;8869;-65
2022/01/18 01:01:01;;;;;;;;;36.50;31.75;19.90;99.90;;;;;;5060015;28;8837;-66
2022/01/18 01:03:28;;;;;;;;;27.00;25.60;20.00;99.90;;;;;;5059068;28;8750;-66
2022/01/18 01:05:54;;;;;;;;;24.40;22.20;20.00;99.90;;;;;;5059339;28;8723;-66
2022/01/18 01:08:21;;;;;;;;;21.60;19.80;20.10;99.90;;;;;;5040895;28;8881;-65
2022/01/18 01:10:48;;;;;;;;;20.80;18.00;20.30;99.90;;;;;;5059024;28;8751;-65
2022/01/18 01:13:15;;;;;;;;;26.20;20.20;20.30;99.90;;;;;;5059649;28;10339;-66
2022/01/18 01:35:11;;;;;;;;;23.00;20.00;20.80;99.90;;;;;;5057373;28;9448;-66
2022/01/18 01:43:10;;;;;;;;;8.40;7.60;21.00;99.90;;;;;;5058339;28;8755;-65
2022/01/18 01:45:36;;;;;;;;;16.60;14.60;21.10;99.90;;;;;;5058589;28;8795;-67
2022/01/18 01:48:04;;;;;;;;;19.20;17.00;21.20;99.90;;;;;;5057008;28;8775;-65
2022/01/18 01:50:53;;;;;;;;;21.80;15.40;21.30;99.90;;;;;;5036959;28;9494;-67
2022/01/18 01:53:23;;;;;;;;;17.60;15.60;21.40;99.90;;;;;;5038337;28;8801;-66
2022/01/18 01:55:50;;;;;;;;;18.40;14.00;21.50;99.90;;;;;;5053419;28;9490;-65
2022/01/18 01:58:17;;;;;;;;;16.20;15.00;21.50;99.90;;;;;;5038547;28;8856;-65
2022/01/18 02:00:48;;;;;;;;;20.00;16.40;21.60;99.90;;;;;;5036303;28;8746;-65
2022/01/18 02:03:15;;;;;;;;;17.20;15.20;21.60;99.90;;;;;;5038573;28;8753;-66
2022/01/18 02:05:41;;;;;;;;;20.60;16.20;21.50;99.90;;;;;;5051386;28;8740;-69
2022/01/18 02:08:08;;;;;;;;;19.00;15.80;21.40;99.90;;;;;;5056917;28;9318;-67
2022/01/18 02:10:36;;;;;;;;;17.00;14.20;21.40;99.90;;;;;;5023409;28;8755;-75
2022/01/18 02:13:04;;;;;;;;;15.60;12.00;21.50;99.90;;;;;;5057147;28;8831;-67
2022/01/18 02:15:32;;;;;;;;;17.60;13.80;21.60;99.90;;;;;;5057709;28;8763;-69
2022/01/18 02:23:30;;;;;;;;;17.20;14.80;21.70;99.90;;;;;;5057727;28;8759;-66
2022/01/18 02:25:57;;;;;;;;;23.00;19.80;21.70;99.90;;;;;;5038403;28;8778;-66
2022/01/18 02:28:24;;;;;;;;;19.00;18.40;21.80;99.90;;;;;;5057081;28;8756;-65
2022/01/18 02:30:51;;;;;;;;;20.00;17.80;21.90;99.90;;;;;;5055950;28;8812;-65
2022/01/18 02:33:18;;;;;;;;;15.40;14.00;22.00;99.90;;;;;;5035950;28;8814;-68
2022/01/18 02:35:45;;;;;;;;;20.00;15.80;21.90;99.90;;;;;;5056874;28;8778;-75
2022/01/18 02:38:15;;;;;;;;;20.00;14.80;22.00;99.90;;;;;;5057344;28;8779;-75
2022/01/18 02:40:45;;;;;;;;;5.20;5.20;22.10;99.90;;;;;;5039205;28;8752;-72
2022/01/18 02:45:57;;;;;;;;;18.00;17.20;22.30;99.90;;;;;;5057983;28;8767;-71
2022/01/18 02:48:24;;;;;;;;;21.40;19.00;22.30;99.90;;;;;;5055670;28;8893;-69
2022/01/18 02:50:50;;;;;;;;;21.60;17.20;22.40;99.90;;;;;;5055276;28;8815;-70
2022/01/18 02:53:17;;;;;;;;;24.20;19.60;22.40;99.90;;;;;;5056797;28;8771;-70
2022/01/18 02:55:52;;;;;;;;;23.40;18.40;22.40;99.90;;;;;;5056750;28;8821;-72
2022/01/18 02:58:27;;;;;;;;;17.80;17.00;22.40;99.90;;;;;;5024156;28;8747;-71
2022/01/18 03:03:36;;;;;;;;;21.60;17.80;22.50;99.90;;;;;;5057609;28;8775;-72
2022/01/18 03:06:04;;;;;;;;;23.00;16.80;22.60;99.90;;;;;;5055917;28;8778;-72
2022/01/18 03:08:31;;;;;;;;;17.80;15.40;22.70;99.90;;;;;;5055121;28;8791;-71
2022/01/18 03:10:58;;;;;;;;;22.20;20.00;22.70;99.90;;;;;;5055774;28;8856;-74
2022/01/18 03:13:24;;;;;;;;;20.60;16.60;22.80;99.90;;;;;;5055054;28;8778;-68
2022/01/18 03:15:51;;;;;;;;;22.80;19.80;22.80;99.90;;;;;;5057696;28;8805;-71
2022/01/18 03:18:18;;;;;;;;;19.20;15.00;22.90;99.90;;;;;;5055990;28;8790;-72
2022/01/18 03:20:45;;;;;;;;;17.80;13.80;23.00;99.90;;;;;;5027937;28;8758;-73
2022/01/18 03:23:19;;;;;;;;;16.00;15.20;23.00;99.90;;;;;;5037566;28;8800;-72
2022/01/18 03:25:55;;;;;;;;;17.60;14.80;23.00;99.90;;;;;;5052365;28;8746;-72
2022/01/18 03:28:22;;;;;;;;;13.60;12.40;23.10;99.90;;;;;;5036015;28;8734;-74
2022/01/18 03:30:53;;;;;;;;;16.40;13.40;23.10;99.90;;;;;;5051633;28;8738;-71
2022/01/18 03:33:21;;;;;;;;;15.00;15.00;23.10;99.90;;;;;;5034828;28;8781;-74
2022/01/18 03:35:49;;;;;;;;;12.00;12.00;23.20;99.90;;;;;;5047455;28;8748;-73
2022/01/18 03:38:16;;;;;;;;;13.00;12.40;23.20;99.90;;;;;;5055399;28;8760;-74
2022/01/18 03:40:42;;;;;;;;;14.40;12.40;23.30;99.90;;;;;;5054319;28;8716;-72
2022/01/18 03:43:12;;;;;;;;;12.80;11.00;23.40;99.90;;;;;;5056857;28;8731;-74
2022/01/18 03:45:43;;;;;;;;;12.60;8.60;23.40;99.90;;;;;;5056348;28;8747;-73
2022/01/18 03:48:14;;;;;;;;;10.60;8.40;23.50;99.90;;;;;;5053024;28;8783;-74
2022/01/18 03:50:42;;;;;;;;;11.80;11.20;23.60;99.90;;;;;;5055963;28;8799;-75
2022/01/18 03:53:10;;;;;;;;;15.20;14.00;23.60;99.90;;;;;;5038738;28;9107;-84
2022/01/18 03:55:37;;;;;;;;;15.60;15.40;23.70;99.90;;;;;;5037732;28;10279;-75
2022/01/18 03:58:03;;;;;;;;;15.20;14.60;23.80;99.90;;;;;;5056508;28;8755;-75
2022/01/18 04:00:33;;;;;;;;;16.80;15.00;23.90;99.90;;;;;;5053983;28;9439;-75
2022/01/18 04:03:00;;;;;;;;;19.20;15.60;24.10;99.90;;;;;;5056282;28;8883;-76
2022/01/18 04:05:26;;;;;;;;;12.20;12.00;24.20;99.90;;;;;;5055496;28;8789;-74
2022/01/18 04:07:53;;;;;;;;;12.00;10.80;24.30;99.90;;;;;;5055556;28;8775;-73
2022/01/18 04:10:20;;;;;;;;;12.80;11.00;24.30;99.90;;;;;;5054356;28;8754;-75
2022/01/18 04:12:47;;;;;;;;;12.40;12.40;24.30;99.90;;;;;;5054794;28;8755;-74
2022/01/18 04:15:14;;;;;;;;;14.40;12.00;24.30;99.90;;;;;;5056061;28;8860;-69
2022/01/18 04:25:54;;;;;;;;;12.00;12.00;24.50;99.90;;;;;;5057107;28;8748;-67
2022/01/18 04:28:40;;;;;;;;;13.80;11.40;24.60;99.90;;;;;;5058735;28;8767;-68
2022/01/18 04:31:07;;;;;;;;;14.60;12.80;24.60;99.90;;;;;;5058216;28;8748;-67
2022/01/18 04:33:35;;;;;;;;;11.60;10.60;24.70;99.90;;;;;;5058789;28;8771;-67
2022/01/18 04:36:02;;;;;;;;;13.40;13.40;24.90;99.90;;;;;;5059285;28;8756;-70
2022/01/18 04:38:29;;;;;;;;;11.60;11.60;24.90;99.90;;;;;;5059472;28;8848;-69
2022/01/18 04:41:03;;;;;;;;;11.40;9.00;24.90;99.90;;;;;;5059231;28;8801;-69
2022/01/18 04:49:00;;;;;;;;;13.00;10.80;25.10;99.90;;;;;;5058953;28;8748;-69
2022/01/18 04:51:26;;;;;;;;;10.40;9.60;25.10;99.90;;;;;;5059049;28;8813;-72
2022/01/18 04:53:56;;;;;;;;;11.60;11.60;25.70;99.90;;;;;;5058278;28;8857;-69
2022/01/18 04:57:51;;;;;;;;;10.60;10.60;26.00;99.90;;;;;;5041702;28;8841;-71
2022/01/18 04:59:13;;;;;;;;;9.20;9.20;26.50;99.90;;;;;;5058806;28;8752;-72
2022/01/18 05:01:41;;;;;;;;;10.00;8.20;26.40;99.90;;;;;;5057717;28;8762;-73
2022/01/18 05:04:08;;;;;;;;;10.40;9.60;25.90;99.90;;;;;;5059585;28;8763;-71
2022/01/18 05:06:35;;;;;;;;;10.20;10.20;25.90;99.90;;;;;;5056779;28;8790;-72
2022/01/18 05:09:07;;;;;;;;;11.40;10.00;25.80;99.90;;;;;;5022937;28;8914;-78
2022/01/18 05:11:45;;;;;;;;;9.60;8.00;26.30;99.90;;;;;;5056394;28;8779;-80
2022/01/18 05:14:27;;;;;;;;;14.80;12.60;26.60;99.90;;;;;;5057676;28;8759;-69
2022/01/18 05:17:13;;;;;;;;;12.40;12.40;26.70;99.90;;;;;;5058520;28;8767;-69
2022/01/18 05:20:23;;;;;;;;;14.80;13.60;26.50;99.90;;;;;;5058055;28;8770;-77
2022/01/18 05:23:02;;;;;;;;;14.20;13.00;26.30;99.90;;;;;;5044333;28;8833;-75
2022/01/18 05:25:34;;;;;;;;;16.00;14.60;26.50;99.90;;;;;;5058164;28;8777;-75
2022/01/18 05:28:02;;;;;;;;;13.00;13.00;26.50;99.90;;;;;;5041697;28;8743;-71
2022/01/18 05:30:30;;;;;;;;;12.20;11.20;26.60;99.90;;;;;;5057985;28;8774;-74
2022/01/18 05:32:57;;;;;;;;;16.40;15.80;26.50;99.90;;;;;;5058027;28;8787;-72
2022/01/18 05:35:24;;;;;;;;;16.20;14.80;26.40;99.90;;;;;;5058225;28;8780;-75
2022/01/18 05:37:51;;;;;;;;;18.80;16.00;26.40;99.90;;;;;;5040387;28;8768;-79
2022/01/18 05:40:18;;;;;;;;;17.20;16.20;26.30;99.90;;;;;;5057441;28;8869;-76
2022/01/18 05:42:45;;;;;;;;;17.20;16.00;26.40;99.90;;;;;;5058474;28;8761;-76
2022/01/18 05:45:12;;;;;;;;;20.40;19.20;26.50;99.90;;;;;;5058694;28;8921;-79
2022/01/18 05:47:40;;;;;;;;;16.40;16.00;26.60;99.90;;;;;;5057898;28;8782;-79
2022/01/18 05:50:07;;;;;;;;;20.60;18.80;26.80;99.90;;;;;;5040938;28;8825;-78
2022/01/18 05:52:34;;;;;;;;;19.40;19.20;26.80;99.90;;;;;;5056785;28;8784;-79
2022/01/18 05:55:01;;;;;;;;;18.40;17.00;27.00;99.90;;;;;;5058836;28;8767;-78
2022/01/18 05:57:28;;;;;;;;;14.60;14.60;26.90;99.90;;;;;;5054733;28;8743;-80
2022/01/18 06:00:01;;;;;;;;;17.40;16.20;26.90;99.90;;;;;;5057065;28;8783;-78
2022/01/18 06:03:13;;;;;;;;;21.00;20.80;26.90;99.90;;;;;;5056857;28;8871;-75
2022/01/18 06:08:02;;;;;;;;;21.25;18.50;27.10;99.90;;;;;;5056270;28;8882;-77
2022/01/18 06:10:29;;;;;;;;;25.50;20.50;27.10;99.90;;;;;;5037701;28;8760;-76
2022/01/18 06:12:56;;;;;;;;;25.50;22.25;27.10;99.90;;;;;;5055840;28;9424;-75
2022/01/18 06:15:23;;;;;;;;;22.40;21.20;27.10;99.90;;;;;;5038634;28;9425;-75
2022/01/18 06:17:50;;;;;;;;;21.40;18.40;27.10;99.90;;;;;;5057952;28;8767;-76
2022/01/18 06:20:16;;;;;;;;;26.00;24.25;27.20;99.90;;;;;;5057542;28;8889;-77
2022/01/18 06:22:43;;;;;;;;;25.60;25.60;27.30;99.90;;;;;;5056896;28;8735;-76
2022/01/18 06:25:10;;;;;;;;;24.00;23.25;27.40;99.90;;;;;;5058236;28;8785;-75
2022/01/18 06:27:37;;;;;;;;;32.00;27.60;27.40;99.90;;;;;;5057682;28;8781;-75
2022/01/18 06:30:09;;;;;;;;;26.60;23.60;27.40;99.90;;;;;;5057157;28;8800;-76
2022/01/18 06:32:39;;;;;;;;;29.80;26.00;27.30;99.90;;;;;;5056328;28;8778;-76
2022/01/18 06:35:07;;;;;;;;;32.20;31.60;27.30;99.90;;;;;;5038991;28;8771;-77
2022/01/18 06:37:34;;;;;;;;;33.25;30.25;27.40;99.90;;;;;;5057372;28;8723;-75
2022/01/18 06:40:03;;;;;;;;;30.75;28.25;27.40;99.50;;;;;;5058264;28;8791;-77
2022/01/18 06:42:30;;;;;;;;;27.00;27.00;27.50;99.80;;;;;;5056295;28;8751;-79
2022/01/18 06:44:57;;;;;;;;;29.25;29.25;27.60;99.40;;;;;;5057620;28;8864;-79
2022/01/18 06:47:24;;;;;;;;;32.00;29.20;27.60;99.80;;;;;;5057133;28;8779;-80
2022/01/18 06:49:50;;;;;;;;;31.50;28.50;27.50;98.80;;;;;;5055608;28;8751;-78
2022/01/18 06:52:17;;;;;;;;;31.50;30.00;27.40;99.40;;;;;;5056610;28;8824;-78
2022/01/18 06:54:44;;;;;;;;;30.75;27.50;27.40;99.90;;;;;;5056550;28;8877;-80
2022/01/18 06:57:11;;;;;;;;;30.50;30.00;27.40;99.90;;;;;;5056789;28;8836;-79
2022/01/18 06:59:38;;;;;;;;;30.50;29.00;27.50;99.60;;;;;;5038516;28;8775;-77
2022/01/18 07:02:05;;;;;;;;;37.75;33.00;27.50;99.90;;;;;;5053326;28;8763;-72
2022/01/18 07:04:31;;;;;;;;;38.00;33.00;27.90;98.80;;;;;;5055120;28;8748;-66
2022/01/18 07:06:58;;;;;;;;;37.25;32.25;28.30;98.50;;;;;;5055912;28;8768;-72
2022/01/18 07:09:25;;;;;;;;;41.50;32.75;28.40;97.30;;;;;;5056692;28;8724;-70
2022/01/18 07:11:56;;;;;;;;;37.00;34.00;28.40;98.20;;;;;;5056299;28;9455;-69
2022/01/18 07:14:23;;;;;;;;;34.00;31.00;28.30;97.80;;;;;;5056179;28;8794;-71
2022/01/18 07:16:50;;;;;;;;;38.50;34.00;28.80;96.60;;;;;;5054364;28;8743;-71
2022/01/18 07:19:17;;;;;;;;;32.75;29.75;29.20;95.70;;;;;;5056613;28;8879;-70
2022/01/18 07:21:44;;;;;;;;;39.00;31.75;29.00;96.00;;;;;;5054461;28;8755;-71
2022/01/18 07:24:36;;;;;;;;;32.25;27.00;28.50;96.80;;;;;;5056119;28;8735;-73
2022/01/18 07:27:03;;;;;;;;;33.75;30.50;28.60;96.30;;;;;;5055718;28;8755;-69
2022/01/18 07:29:30;;;;;;;;;42.25;33.00;29.10;96.20;;;;;;5056392;28;8759;-67
2022/01/18 07:31:57;;;;;;;;;40.75;32.25;28.50;96.60;;;;;;5054180;28;8790;-69
2022/01/18 07:34:23;;;;;;;;;35.50;30.25;28.10;97.10;;;;;;5056494;28;8728;-70
2022/01/18 07:36:50;;;;;;;;;43.50;34.75;27.90;97.60;;;;;;5054980;28;8789;-71
2022/01/18 07:39:17;;;;;;;;;42.50;33.75;27.90;97.40;;;;;;5055580;28;9431;-70
2022/01/18 07:41:44;;;;;;;;;35.00;32.50;28.30;96.80;;;;;;5054332;28;8849;-71
2022/01/18 07:44:11;;;;;;;;;36.00;33.00;28.00;97.70;;;;;;5056020;28;8824;-70
2022/01/18 07:46:37;;;;;;;;;40.25;33.50;27.80;97.70;;;;;;5054285;28;8760;-68
2022/01/18 07:49:04;;;;;;;;;39.25;33.25;27.60;98.80;;;;;;5055134;28;8743;-68
2022/01/18 07:51:31;;;;;;;;;38.75;33.25;27.80;97.80;;;;;;5054201;28;8773;-69
2022/01/18 07:53:57;;;;;;;;;27.25;23.00;28.40;96.30;;;;;;5055079;28;8754;-68
2022/01/18 07:56:24;;;;;;;;;34.00;32.00;28.70;95.90;;;;;;5036098;28;8767;-71
2022/01/18 07:58:51;;;;;;;;;33.25;31.00;28.60;96.50;;;;;;5053221;28;8767;-72
2022/01/18 08:01:20;;;;;;;;;37.00;31.50;29.00;95.20;;;;;;5022058;28;8748;-75
2022/01/18 08:03:46;;;;;;;;;38.50;31.75;28.50;96.00;;;;;;5055883;28;8857;-75
2022/01/18 08:06:13;;;;;;;;;37.00;33.25;28.80;95.50;;;;;;5054027;28;8746;-76
2022/01/18 08:08:40;;;;;;;;;33.75;29.25;28.40;96.20;;;;;;5055024;28;8790;-69
2022/01/18 08:11:07;;;;;;;;;33.50;30.00;28.10;96.80;;;;;;5053749;28;8775;-77
2022/01/18 08:13:39;;;;;;;;;37.75;31.75;27.90;97.30;;;;;;5055195;28;8865;-76
2022/01/18 08:17:00;;;;;;;;;37.50;33.25;28.40;96.10;;;;;;5055314;28;8763;-75
2022/01/18 08:18:57;;;;;;;;;37.50;34.00;28.90;95.40;;;;;;5049626;28;8719;-68
2022/01/18 08:21:24;;;;;;;;;39.00;34.00;28.80;95.60;;;;;;5053233;28;8766;-70
2022/01/18 08:23:51;;;;;;;;;45.50;36.50;28.80;95.60;;;;;;5036780;28;9348;-68
2022/01/18 08:26:18;;;;;;;;;43.25;36.25;28.40;96.80;;;;;;5035816;28;8857;-70
2022/01/18 08:28:45;;;;;;;;;47.75;37.50;28.20;96.70;;;;;;5055384;28;8807;-70
2022/01/18 08:31:12;;;;;;;;;43.75;35.75;28.10;97.00;;;;;;5055608;28;8740;-70
2022/01/18 08:33:39;;;;;;;;;43.50;35.50;28.10;97.10;;;;;;5036961;28;8806;-70
2022/01/18 08:36:09;;;;;;;;;45.50;35.00;28.00;96.90;;;;;;5054345;28;8826;-70
2022/01/18 08:38:36;;;;;;;;;45.50;38.50;27.90;96.80;;;;;;5037817;28;8763;-69
2022/01/18 08:41:02;;;;;;;;;44.50;36.25;27.90;97.10;;;;;;5038000;28;8759;-70
2022/01/18 08:43:33;;;;;;;;;41.75;35.50;28.00;96.80;;;;;;5053883;28;8779;-69
2022/01/18 08:46:00;;;;;;;;;35.50;33.00;27.90;96.50;;;;;;5056645;28;8893;-70
2022/01/18 08:48:27;;;;;;;;;41.25;34.25;27.80;97.30;;;;;;5055511;28;8779;-70
2022/01/18 08:50:53;;;;;;;;;42.00;34.50;27.80;96.40;;;;;;5055903;28;8791;-69
2022/01/18 08:53:20;;;;;;;;;39.75;34.25;27.90;96.50;;;;;;5055603;28;8787;-69
2022/01/18 08:55:47;;;;;;;;;45.25;35.00;27.90;96.30;;;;;;5054356;28;8748;-69
2022/01/18 08:58:14;;;;;;;;;42.50;35.75;27.90;97.30;;;;;;5056514;28;8769;-69
2022/01/18 09:00:41;;;;;;;;;42.00;36.00;27.90;96.90;;;;;;5055552;28;8751;-69
2022/01/18 09:03:09;;;;;;;;;44.50;37.00;27.80;97.10;;;;;;5054831;28;8743;-70
2022/01/18 09:05:38;;;;;;;;;40.50;35.25;27.90;97.30;;;;;;5055568;28;8889;-69
2022/01/18 09:08:07;;;;;;;;;42.75;35.50;27.90;96.80;;;;;;5056172;28;8873;-70
2022/01/18 09:10:34;;;;;;;;;47.00;37.25;28.00;96.90;;;;;;5055346;28;8723;-69
2022/01/18 09:13:01;;;;;;;;;38.75;34.75;28.00;96.40;;;;;;5059250;28;8845;-70
2022/01/18 09:15:28;;;;;;;;;39.50;36.50;28.00;96.20;;;;;;5057558;28;8750;-70
2022/01/18 09:17:54;;;;;;;;;40.25;36.00;28.10;94.50;;;;;;5059582;28;8782;-70
2022/01/18 09:20:23;;;;;;;;;40.75;34.50;28.10;94.50;;;;;;5058965;28;8795;-69
2022/01/18 09:22:52;;;;;;;;;45.00;33.75;28.10;95.30;;;;;;5059404;28;9362;-69
2022/01/18 09:25:23;;;;;;;;;43.50;35.00;28.20;95.20;;;;;;5059709;28;8806;-70
2022/01/18 09:27:50;;;;;;;;;44.00;37.00;28.10;94.80;;;;;;5059561;28;8841;-69
2022/01/18 09:30:16;;;;;;;;;40.50;34.00;28.10;95.20;;;;;;5058042;28;8752;-70
2022/01/18 09:32:44;;;;;;;;;37.25;33.50;28.10;94.80;;;;;;5057891;28;8798;-69
2022/01/18 09:35:11;;;;;;;;;37.25;32.50;28.20;94.70;;;;;;5059053;28;8755;-70
2022/01/18 09:37:38;;;;;;;;;41.50;35.50;28.20;94.70;;;;;;5057555;28;8762;-70
2022/01/18 09:40:06;;;;;;;;;43.75;36.50;28.20;95.30;;;;;;5058301;28;8805;-69
2022/01/18 09:42:38;;;;;;;;;41.00;36.00;28.20;94.90;;;;;;5057657;28;8762;-70
2022/01/18 09:45:07;;;;;;;;;43.75;35.25;28.10;94.60;;;;;;5058112;28;8742;-69
2022/01/18 09:47:36;;;;;;;;;44.50;35.75;28.10;95.10;;;;;;5058646;28;8782;-69
2022/01/18 09:50:04;;;;;;;;;43.50;35.00;28.10;95.40;;;;;;5058921;28;8805;-70
2022/01/18 09:52:31;;;;;;;;;46.75;38.75;28.00;95.50;;;;;;5058610;28;8828;-70
2022/01/18 09:54:58;;;;;;;;;40.75;36.00;28.00;95.70;;;;;;5025431;28;8783;-70
2022/01/18 09:57:24;;;;;;;;;47.75;40.25;28.00;96.00;;;;;;5058267;28;8743;-70
2022/01/18 09:59:51;;;;;;;;;38.75;33.75;28.10;95.60;;;;;;5057106;28;8731;-70
2022/01/18 10:02:19;;;;;;;;;38.50;34.50;28.00;95.70;;;;;;5057178;28;8799;-70
2022/01/18 10:04:48;;;;;;;;;39.50;35.50;27.90;96.10;;;;;;5058558;28;8751;-69
2022/01/18 10:07:15;;;;;;;;;44.75;37.25;27.90;95.70;;;;;;5058965;28;8728;-70
2022/01/18 10:09:44;;;;;;;;;45.75;38.25;27.80;95.80;;;;;;5057333;28;8747;-69
2022/01/18 10:12:15;;;;;;;;;41.50;36.75;27.80;95.90;;;;;;5058368;28;8786;-70
2022/01/18 10:14:55;;;;;;;;;39.25;32.50;27.80;96.10;;;;;;5057192;28;8751;-69
2022/01/18 10:17:32;;;;;;;;;47.00;38.50;27.70;96.10;;;;;;5041880;28;8778;-69
2022/01/18 10:20:12;;;;;;;;;47.67;39.00;27.70;96.20;;;;;;5058333;28;8802;-69
2022/01/18 10:22:43;;;;;;;;;47.25;38.00;27.60;96.50;;;;;;5040849;28;9418;-69
2022/01/18 10:25:24;;;;;;;;;46.00;38.75;27.60;96.40;;;;;;5059027;28;8732;-70
2022/01/18 10:27:52;;;;;;;;;44.75;38.00;27.50;96.50;;;;;;5042102;28;8735;-69
2022/01/18 10:30:44;;;;;;;;;48.75;40.75;27.40;96.70;;;;;;5057940;28;8782;-70
2022/01/18 10:33:18;;;;;;;;;49.25;39.25;27.40;97.00;;;;;;5056967;28;8798;-69
2022/01/18 10:36:10;;;;;;;;;49.75;38.75;27.30;97.00;;;;;;5057866;28;8778;-69
2022/01/18 10:38:48;;;;;;;;;40.75;36.50;27.20;97.30;;;;;;5058183;28;8783;-69
2022/01/18 10:41:27;;;;;;;;;39.75;35.00;27.10;97.10;;;;;;5058695;28;8778;-70
2022/01/18 10:44:13;;;;;;;;;49.00;39.00;27.10;97.10;;;;;;5058303;28;8743;-70
2022/01/18 10:46:41;;;;;;;;;49.00;38.50;27.00;97.30;;;;;;5040245;28;8881;-69
2022/01/18 10:49:08;;;;;;;;;47.25;39.25;27.00;97.50;;;;;;5058460;28;8760;-70
2022/01/18 10:51:37;;;;;;;;;48.25;39.00;26.90;97.70;;;;;;5057882;28;8800;-70
2022/01/18 10:54:08;;;;;;;;;49.50;40.75;26.80;97.80;;;;;;5057852;28;8898;-70
2022/01/18 10:56:53;;;;;;;;;48.50;39.00;26.80;98.10;;;;;;5056070;28;8768;-70
2022/01/18 10:59:24;;;;;;;;;48.50;40.25;26.70;98.20;;;;;;5040208;28;8767;-69
2022/01/18 11:02:15;;;;;;;;;47.75;39.25;26.60;98.40;;;;;;5057911;28;8744;-69
2022/01/18 11:04:43;;;;;;;;;52.75;43.00;26.50;99.10;;;;;;5051378;28;8760;-69
2022/01/18 11:07:11;;;;;;;;;53.25;43.00;26.40;99.20;;;;;;5056942;28;8755;-69
2022/01/18 11:09:38;;;;;;;;;52.75;43.25;26.30;99.20;;;;;;5057368;28;8884;-69
2022/01/18 11:12:06;;;;;;;;;50.25;42.25;26.30;99.40;;;;;;5057769;28;9469;-70
2022/01/18 11:14:33;;;;;;;;;54.75;44.25;26.20;99.40;;;;;;5039607;28;8744;-70
2022/01/18 11:17:02;;;;;;;;;54.25;44.00;26.20;99.50;;;;;;5056186;28;9250;-69
2022/01/18 11:19:32;;;;;;;;;54.75;42.50;26.10;99.60;;;;;;5057227;28;8848;-69
2022/01/18 11:22:08;;;;;;;;;53.50;44.25;26.10;99.90;;;;;;5057798;28;9408;-70
2022/01/18 11:24:40;;;;;;;;;55.00;45.25;26.00;99.90;;;;;;5040149;28;8759;-70
2022/01/18 11:27:11;;;;;;;;;59.25;47.75;26.00;99.90;;;;;;5048274;28;8755;-70
2022/01/18 11:29:37;;;;;;;;;70.00;54.00;26.00;99.90;;;;;;5055797;28;8901;-69
2022/01/18 11:32:04;;;;;;;;;68.40;53.60;25.90;99.90;;;;;;5055578;28;9561;-70
2022/01/18 11:34:36;;;;;;;;;68.40;52.60;25.80;99.90;;;;;;5054873;28;8764;-69
2022/01/18 11:37:16;;;;;;;;;66.50;49.75;25.80;99.90;;;;;;5056415;28;8763;-69
2022/01/18 11:39:42;;;;;;;;;61.50;47.75;25.80;99.90;;;;;;5056043;28;8797;-70
2022/01/18 11:42:12;;;;;;;;;57.50;46.50;25.70;99.90;;;;;;5055457;28;8787;-69
2022/01/18 11:44:40;;;;;;;;;55.00;44.50;25.70;99.90;;;;;;5056695;28;8775;-70
2022/01/18 11:47:08;;;;;;;;;53.00;44.25;25.70;99.90;;;;;;5055224;28;8782;-70
2022/01/18 11:49:36;;;;;;;;;53.50;42.50;25.70;99.90;;;;;;5055186;28;8829;-69
2022/01/18 11:52:05;;;;;;;;;60.50;45.75;25.60;99.90;;;;;;5057325;28;8795;-69
2022/01/18 11:57:02;;;;;;;;;63.00;48.25;25.60;99.90;;;;;;5056351;28;8944;-70
2022/01/18 11:59:39;;;;;;;;;70.00;51.75;25.60;99.90;;;;;;5038538;28;8767;-70
2022/01/18 12:02:06;;;;;;;;;72.00;57.40;25.60;99.90;;;;;;5055558;28;8751;-70
2022/01/18 12:04:46;;;;;;;;;85.00;73.80;25.50;99.90;;;;;;5056154;28;8735;-69
2022/01/18 12:07:31;;;;;;;;;90.40;81.20;25.40;99.90;;;;;;5056704;28;8716;-70
2022/01/18 12:09:58;;;;;;;;;74.00;60.80;25.40;99.90;;;;;;5056923;28;8734;-70
2022/01/18 12:12:40;;;;;;;;;64.20;47.60;25.40;99.90;;;;;;5056628;28;8771;-70
2022/01/18 12:15:39;;;;;;;;;61.00;47.00;25.50;99.90;;;;;;5056807;28;8755;-70
2022/01/18 12:18:21;;;;;;;;;67.25;51.25;25.40;99.90;;;;;;5052991;28;8987;-70
2022/01/18 12:21:01;;;;;;;;;66.25;51.50;25.40;99.90;;;;;;5056566;28;8801;-70
2022/01/18 12:23:34;;;;;;;;;63.00;49.00;25.40;99.90;;;;;;5056670;28;8759;-70
2022/01/18 12:26:03;;;;;;;;;67.80;53.80;25.40;99.90;;;;;;5056891;28;8793;-70
2022/01/18 12:34:49;;;;;;;;;63.00;50.60;25.20;99.90;;;;;;5056718;28;9460;-70
2022/01/18 12:37:23;;;;;;;;;66.20;50.40;25.20;99.90;;;;;;5057030;28;8765;-70
2022/01/18 12:39:57;;;;;;;;;65.00;51.00;25.10;99.90;;;;;;5056648;28;9439;-70
2022/01/18 12:45:20;;;;;;;;;65.25;51.25;25.20;99.90;;;;;;5057119;28;8794;-70
2022/01/18 12:47:48;;;;;;;;;65.80;53.80;25.10;99.90;;;;;;5059205;28;8755;-70
2022/01/18 12:50:29;;;;;;;;;63.50;50.25;25.00;99.90;;;;;;5059762;28;8771;-70
2022/01/18 12:53:20;;;;;;;;;69.25;52.50;25.00;99.90;;;;;;5058851;28;10271;-69
2022/01/18 12:55:46;;;;;;;;;67.00;51.50;25.00;99.90;;;;;;5051199;28;8828;-69
2022/01/18 12:58:27;;;;;;;;;67.00;52.20;25.00;99.90;;;;;;5060379;28;8747;-70
2022/01/18 13:01:11;;;;;;;;;65.50;52.75;25.00;99.90;;;;;;5060588;28;8779;-70
2022/01/18 13:03:42;;;;;;;;;62.20;49.40;24.90;99.90;;;;;;5059991;28;9531;-70
2022/01/18 13:06:11;;;;;;;;;67.25;51.00;24.60;99.90;;;;;;5059872;28;8740;-70
2022/01/18 13:08:52;;;;;;;;;68.00;53.40;24.50;99.90;;;;;;5041872;28;8775;-70
2022/01/18 13:11:26;;;;;;;;;65.20;52.80;24.50;99.90;;;;;;5058807;28;8941;-70
2022/01/18 13:14:01;;;;;;;;;68.25;53.50;24.50;99.90;;;;;;5058752;28;8759;-71
2022/01/18 13:25:03;;;;;;;;;65.00;50.60;24.10;99.90;;;;;;5039623;28;8766;-70
2022/01/18 13:27:36;;;;;;;;;72.80;57.00;24.10;99.90;;;;;;5038408;28;8824;-70
2022/01/18 13:30:25;;;;;;;;;80.20;68.80;23.90;99.90;;;;;;5038394;28;8792;-69
2022/01/18 13:32:53;;;;;;;;;77.40;61.20;23.60;99.90;;;;;;5039404;28;8880;-69
2022/01/18 13:35:21;;;;;;;;;74.60;64.40;23.30;99.90;;;;;;5048545;28;8802;-69
2022/01/18 13:37:48;;;;;;;;;79.60;64.80;23.20;99.90;;;;;;5057843;28;8751;-68
2022/01/18 13:40:17;;;;;;;;;77.20;63.00;23.10;99.90;;;;;;5059879;28;8739;-69
2022/01/18 13:43:15;;;;;;;;;77.80;64.40;23.00;99.90;;;;;;5057786;28;8763;-69
2022/01/18 13:45:43;;;;;;;;;75.20;60.60;23.10;99.90;;;;;;5050955;28;8771;-68
2022/01/18 13:48:12;;;;;;;;;72.60;59.40;23.00;99.90;;;;;;5041649;28;8775;-68
2022/01/18 13:50:46;;;;;;;;;76.60;61.60;22.90;99.90;;;;;;5058794;28;8834;-68
2022/01/18 13:53:20;;;;;;;;;77.20;63.20;22.90;99.90;;;;;;5058746;28;9290;-69
2022/01/18 13:55:57;;;;;;;;;75.40;58.20;23.00;99.90;;;;;;5059064;28;8755;-69
2022/01/18 13:58:28;;;;;;;;;69.40;54.20;22.80;99.90;;;;;;5018755;28;8803;-69
2022/01/18 14:01:08;;;;;;;;;68.00;52.40;22.60;99.90;;;;;;5018196;28;8760;-68
2022/01/18 14:03:42;;;;;;;;;66.50;53.25;22.50;99.90;;;;;;5017629;28;8761;-69
2022/01/18 14:06:11;;;;;;;;;62.75;50.00;22.50;99.90;;;;;;5017799;28;8788;-69
2022/01/18 14:08:51;;;;;;;;;60.25;48.75;22.60;99.90;;;;;;5017706;28;9459;-69
2022/01/18 14:11:25;;;;;;;;;42.00;35.00;22.70;99.90;;;;;;5002949;28;8934;-69
2022/01/18 14:13:54;;;;;;;;;46.25;37.25;22.60;99.90;;;;;;5019397;28;8767;-68
2022/01/18 14:16:31;;;;;;;;;49.50;38.50;22.50;99.90;;;;;;5017747;28;8773;-68
2022/01/18 14:19:04;;;;;;;;;38.25;33.00;22.50;99.90;;;;;;4993401;28;8765;-68
2022/01/18 14:21:35;;;;;;;;;38.00;34.50;22.40;99.90;;;;;;5008219;28;8764;-68